sensor_id;sensor_type;location;lat;lon;timestamp;P1;durP1;ratioP1;P2;durP2;ratioP2
14858;SDS011;7521;51.700;6.874;2023-12-20T00:00:00;26.03;;;15.47;;
14858;SDS011;7521;51.700;6.874;2023-12-20T00:03:06;24.57;;;15.10;;
14858;SDS011;7521;51.700;6.874;2023-12-20T00:06:12;23.37;;;12.73;;
14858;SDS011;7521;51.700;6.874;2023-12-20T00:09:17;23.00;;;12.25;;
14858;SDS011;7521;51.700;6.874;2023-12-20T00:12:22;25.90;;;11.55;;
14858;SDS011;7521;51.700;6.874;2023-12-20T00:15:27;23.60;;;11.23;;
14858;SDS011;7521;51.700;6.874;2023-12-20T00:18:32;16.40;;;9.88;;
14858;SDS011;7521;51.700;6.874;2023-12-20T00:21:37;14.40;;;8.20;;
14858;SDS011;7521;51.700;6.874;2023-12-20T00:24:43;14.60;;;7.95;;
14858;SDS011;7521;51.700;6.874;2023-12-20T00:27:48;17.88;;;7.38;;
14858;SDS011;7521;51.700;6.874;2023-12-20T00:30:53;13.87;;;6.53;;
14858;SDS011;7521;51.700;6.874;2023-12-20T00:33:58;13.33;;;6.57;;
14858;SDS011;7521;51.700;6.874;2023-12-20T00:37:03;20.90;;;6.45;;
14858;SDS011;7521;51.700;6.874;2023-12-20T00:40:09;15.03;;;5.87;;
14858;SDS011;7521;51.700;6.874;2023-12-20T00:43:14;14.03;;;5.77;;
14858;SDS011;7521;51.700;6.874;2023-12-20T00:46:19;13.30;;;5.63;;
14858;SDS011;7521;51.700;6.874;2023-12-20T00:49:24;13.40;;;5.80;;
14858;SDS011;7521;51.700;6.874;2023-12-20T00:52:29;11.40;;;4.70;;
14858;SDS011;7521;51.700;6.874;2023-12-20T00:55:35;12.95;;;5.85;;
14858;SDS011;7521;51.700;6.874;2023-12-20T00:58:40;18.75;;;6.05;;
14858;SDS011;7521;51.700;6.874;2023-12-20T01:01:45;13.15;;;5.68;;
14858;SDS011;7521;51.700;6.874;2023-12-20T01:04:50;14.93;;;5.33;;
14858;SDS011;7521;51.700;6.874;2023-12-20T01:07:55;9.17;;;6.03;;
14858;SDS011;7521;51.700;6.874;2023-12-20T01:11:03;23.95;;;7.10;;
14858;SDS011;7521;51.700;6.874;2023-12-20T01:14:08;17.43;;;6.67;;
14858;SDS011;7521;51.700;6.874;2023-12-20T01:17:13;14.27;;;6.67;;
14858;SDS011;7521;51.700;6.874;2023-12-20T01:20:19;13.48;;;6.22;;
14858;SDS011;7521;51.700;6.874;2023-12-20T01:23:26;20.03;;;6.67;;
14858;SDS011;7521;51.700;6.874;2023-12-20T01:26:31;19.52;;;6.82;;
14858;SDS011;7521;51.700;6.874;2023-12-20T01:29:36;15.53;;;5.37;;
14858;SDS011;7521;51.700;6.874;2023-12-20T01:32:42;16.27;;;6.17;;
14858;SDS011;7521;51.700;6.874;2023-12-20T01:35:47;17.13;;;6.80;;
14858;SDS011;7521;51.700;6.874;2023-12-20T01:38:52;17.92;;;6.82;;
14858;SDS011;7521;51.700;6.874;2023-12-20T01:41:57;18.08;;;7.28;;
14858;SDS011;7521;51.700;6.874;2023-12-20T01:45:04;16.53;;;7.47;;
14858;SDS011;7521;51.700;6.874;2023-12-20T01:48:10;24.07;;;7.57;;
14858;SDS011;7521;51.700;6.874;2023-12-20T01:51:16;21.60;;;7.93;;
14858;SDS011;7521;51.700;6.874;2023-12-20T01:54:21;25.53;;;7.33;;
14858;SDS011;7521;51.700;6.874;2023-12-20T01:57:27;21.27;;;7.80;;
14858;SDS011;7521;51.700;6.874;2023-12-20T02:00:32;20.03;;;7.63;;
14858;SDS011;7521;51.700;6.874;2023-12-20T02:03:41;25.47;;;7.33;;
14858;SDS011;7521;51.700;6.874;2023-12-20T02:06:46;17.90;;;6.80;;
14858;SDS011;7521;51.700;6.874;2023-12-20T02:09:53;25.43;;;7.93;;
14858;SDS011;7521;51.700;6.874;2023-12-20T02:12:58;16.53;;;7.60;;
14858;SDS011;7521;51.700;6.874;2023-12-20T02:16:03;18.40;;;6.80;;
14858;SDS011;7521;51.700;6.874;2023-12-20T02:19:12;13.50;;;6.60;;
14858;SDS011;7521;51.700;6.874;2023-12-20T02:22:18;19.73;;;6.77;;
14858;SDS011;7521;51.700;6.874;2023-12-20T02:25:23;13.37;;;6.80;;
14858;SDS011;7521;51.700;6.874;2023-12-20T02:28:28;20.97;;;7.30;;
14858;SDS011;7521;51.700;6.874;2023-12-20T02:31:34;24.63;;;7.23;;
14858;SDS011;7521;51.700;6.874;2023-12-20T02:34:39;16.30;;;6.63;;
14858;SDS011;7521;51.700;6.874;2023-12-20T02:37:44;18.40;;;7.27;;
14858;SDS011;7521;51.700;6.874;2023-12-20T02:40:49;22.48;;;6.13;;
14858;SDS011;7521;51.700;6.874;2023-12-20T02:43:54;14.00;;;6.20;;
14858;SDS011;7521;51.700;6.874;2023-12-20T02:46:59;21.65;;;7.25;;
14858;SDS011;7521;51.700;6.874;2023-12-20T02:50:05;20.80;;;6.28;;
14858;SDS011;7521;51.700;6.874;2023-12-20T02:53:10;17.13;;;6.20;;
14858;SDS011;7521;51.700;6.874;2023-12-20T02:56:15;20.97;;;6.83;;
14858;SDS011;7521;51.700;6.874;2023-12-20T02:59:20;21.85;;;6.47;;
14858;SDS011;7521;51.700;6.874;2023-12-20T03:02:25;24.17;;;7.57;;
14858;SDS011;7521;51.700;6.874;2023-12-20T03:05:30;26.08;;;7.68;;
14858;SDS011;7521;51.700;6.874;2023-12-20T03:08:36;27.83;;;8.50;;
14858;SDS011;7521;51.700;6.874;2023-12-20T03:11:41;24.38;;;9.18;;
14858;SDS011;7521;51.700;6.874;2023-12-20T03:14:46;24.88;;;8.50;;
14858;SDS011;7521;51.700;6.874;2023-12-20T03:17:51;24.42;;;9.40;;
14858;SDS011;7521;51.700;6.874;2023-12-20T03:20:56;24.35;;;10.18;;
14858;SDS011;7521;51.700;6.874;2023-12-20T03:24:01;22.42;;;9.43;;
14858;SDS011;7521;51.700;6.874;2023-12-20T03:27:06;26.42;;;9.10;;
14858;SDS011;7521;51.700;6.874;2023-12-20T03:30:12;21.63;;;8.67;;
14858;SDS011;7521;51.700;6.874;2023-12-20T03:33:17;25.90;;;8.57;;
14858;SDS011;7521;51.700;6.874;2023-12-20T03:36:22;22.80;;;8.43;;
14858;SDS011;7521;51.700;6.874;2023-12-20T03:39:27;18.15;;;7.65;;
14858;SDS011;7521;51.700;6.874;2023-12-20T03:42:32;24.52;;;8.60;;
14858;SDS011;7521;51.700;6.874;2023-12-20T03:45:38;23.52;;;6.88;;
14858;SDS011;7521;51.700;6.874;2023-12-20T03:48:43;19.00;;;6.80;;
14858;SDS011;7521;51.700;6.874;2023-12-20T03:51:48;16.45;;;7.10;;
14858;SDS011;7521;51.700;6.874;2023-12-20T03:54:53;25.13;;;7.32;;
14858;SDS011;7521;51.700;6.874;2023-12-20T03:58:01;23.97;;;7.27;;
14858;SDS011;7521;51.700;6.874;2023-12-20T04:01:09;20.67;;;6.95;;
14858;SDS011;7521;51.700;6.874;2023-12-20T04:04:16;16.80;;;5.97;;
14858;SDS011;7521;51.700;6.874;2023-12-20T04:07:21;18.23;;;6.53;;
14858;SDS011;7521;51.700;6.874;2023-12-20T04:10:27;25.27;;;6.57;;
14858;SDS011;7521;51.700;6.874;2023-12-20T04:13:32;19.65;;;5.90;;
14858;SDS011;7521;51.700;6.874;2023-12-20T04:16:40;29.50;;;6.25;;
14858;SDS011;7521;51.700;6.874;2023-12-20T04:19:45;22.40;;;5.97;;
14858;SDS011;7521;51.700;6.874;2023-12-20T04:22:50;18.38;;;5.22;;
14858;SDS011;7521;51.700;6.874;2023-12-20T04:25:55;19.38;;;5.85;;
14858;SDS011;7521;51.700;6.874;2023-12-20T04:29:01;22.53;;;6.00;;
14858;SDS011;7521;51.700;6.874;2023-12-20T04:32:06;19.07;;;5.80;;
14858;SDS011;7521;51.700;6.874;2023-12-20T04:35:12;17.92;;;5.78;;
14858;SDS011;7521;51.700;6.874;2023-12-20T04:38:17;14.33;;;5.07;;
14858;SDS011;7521;51.700;6.874;2023-12-20T04:41:22;21.00;;;4.70;;
14858;SDS011;7521;51.700;6.874;2023-12-20T04:44:27;21.27;;;5.27;;
14858;SDS011;7521;51.700;6.874;2023-12-20T04:47:32;18.30;;;4.80;;
14858;SDS011;7521;51.700;6.874;2023-12-20T04:50:38;21.85;;;6.10;;
14858;SDS011;7521;51.700;6.874;2023-12-20T04:53:43;18.20;;;5.03;;
14858;SDS011;7521;51.700;6.874;2023-12-20T04:56:48;16.77;;;4.57;;
14858;SDS011;7521;51.700;6.874;2023-12-20T04:59:53;24.03;;;4.63;;
14858;SDS011;7521;51.700;6.874;2023-12-20T05:02:58;19.30;;;5.10;;
14858;SDS011;7521;51.700;6.874;2023-12-20T05:06:03;21.63;;;5.00;;
14858;SDS011;7521;51.700;6.874;2023-12-20T05:09:09;17.70;;;5.07;;
14858;SDS011;7521;51.700;6.874;2023-12-20T05:12:14;16.17;;;5.13;;
14858;SDS011;7521;51.700;6.874;2023-12-20T05:15:19;19.92;;;5.05;;
14858;SDS011;7521;51.700;6.874;2023-12-20T05:18:24;18.63;;;5.30;;
14858;SDS011;7521;51.700;6.874;2023-12-20T05:21:29;22.73;;;6.33;;
14858;SDS011;7521;51.700;6.874;2023-12-20T05:24:35;19.33;;;5.27;;
14858;SDS011;7521;51.700;6.874;2023-12-20T05:27:40;17.30;;;4.63;;
14858;SDS011;7521;51.700;6.874;2023-12-20T05:30:46;18.20;;;5.00;;
14858;SDS011;7521;51.700;6.874;2023-12-20T05:33:51;17.47;;;4.87;;
14858;SDS011;7521;51.700;6.874;2023-12-20T05:36:57;23.95;;;5.60;;
14858;SDS011;7521;51.700;6.874;2023-12-20T05:40:02;20.50;;;5.60;;
14858;SDS011;7521;51.700;6.874;2023-12-20T05:43:08;27.97;;;5.93;;
14858;SDS011;7521;51.700;6.874;2023-12-20T05:46:13;29.35;;;5.57;;
14858;SDS011;7521;51.700;6.874;2023-12-20T05:49:18;22.95;;;4.75;;
14858;SDS011;7521;51.700;6.874;2023-12-20T05:52:23;19.10;;;5.35;;
14858;SDS011;7521;51.700;6.874;2023-12-20T05:55:28;23.40;;;5.88;;
14858;SDS011;7521;51.700;6.874;2023-12-20T05:58:33;18.60;;;6.10;;
14858;SDS011;7521;51.700;6.874;2023-12-20T06:01:38;29.48;;;6.47;;
14858;SDS011;7521;51.700;6.874;2023-12-20T06:04:44;17.67;;;5.73;;
14858;SDS011;7521;51.700;6.874;2023-12-20T06:07:49;23.17;;;6.73;;
14858;SDS011;7521;51.700;6.874;2023-12-20T06:10:55;21.77;;;7.70;;
14858;SDS011;7521;51.700;6.874;2023-12-20T06:14:00;30.10;;;7.07;;
14858;SDS011;7521;51.700;6.874;2023-12-20T06:17:06;23.60;;;6.78;;
14858;SDS011;7521;51.700;6.874;2023-12-20T06:20:11;24.63;;;6.55;;
14858;SDS011;7521;51.700;6.874;2023-12-20T06:23:16;21.25;;;7.65;;
14858;SDS011;7521;51.700;6.874;2023-12-20T06:26:21;26.73;;;7.30;;
14858;SDS011;7521;51.700;6.874;2023-12-20T06:29:27;27.37;;;7.00;;
14858;SDS011;7521;51.700;6.874;2023-12-20T06:32:33;27.80;;;7.17;;
14858;SDS011;7521;51.700;6.874;2023-12-20T06:35:39;20.33;;;7.03;;
14858;SDS011;7521;51.700;6.874;2023-12-20T06:38:44;28.15;;;7.63;;
14858;SDS011;7521;51.700;6.874;2023-12-20T06:41:49;31.67;;;9.40;;
14858;SDS011;7521;51.700;6.874;2023-12-20T06:44:54;28.60;;;8.48;;
14858;SDS011;7521;51.700;6.874;2023-12-20T06:48:00;25.00;;;7.70;;
14858;SDS011;7521;51.700;6.874;2023-12-20T06:51:05;21.42;;;8.13;;
14858;SDS011;7521;51.700;6.874;2023-12-20T06:54:10;24.52;;;7.53;;
14858;SDS011;7521;51.700;6.874;2023-12-20T06:57:15;24.15;;;8.27;;
14858;SDS011;7521;51.700;6.874;2023-12-20T07:00:20;24.05;;;7.80;;
14858;SDS011;7521;51.700;6.874;2023-12-20T07:03:25;27.40;;;7.60;;
14858;SDS011;7521;51.700;6.874;2023-12-20T07:06:31;21.85;;;7.70;;
14858;SDS011;7521;51.700;6.874;2023-12-20T07:09:36;27.77;;;7.28;;
14858;SDS011;7521;51.700;6.874;2023-12-20T07:12:42;19.90;;;7.17;;
14858;SDS011;7521;51.700;6.874;2023-12-20T07:15:47;24.60;;;6.55;;
14858;SDS011;7521;51.700;6.874;2023-12-20T07:18:52;27.58;;;7.15;;
14858;SDS011;7521;51.700;6.874;2023-12-20T07:21:57;19.73;;;5.97;;
14858;SDS011;7521;51.700;6.874;2023-12-20T07:25:02;24.02;;;6.05;;
14858;SDS011;7521;51.700;6.874;2023-12-20T07:28:08;17.87;;;6.57;;
14858;SDS011;7521;51.700;6.874;2023-12-20T07:31:15;18.87;;;5.87;;
14858;SDS011;7521;51.700;6.874;2023-12-20T07:34:20;24.60;;;5.90;;
14858;SDS011;7521;51.700;6.874;2023-12-20T07:37:25;27.77;;;8.05;;
14858;SDS011;7521;51.700;6.874;2023-12-20T07:40:30;28.45;;;6.85;;
14858;SDS011;7521;51.700;6.874;2023-12-20T07:43:36;31.50;;;7.22;;
14858;SDS011;7521;51.700;6.874;2023-12-20T07:46:41;26.30;;;5.50;;
14858;SDS011;7521;51.700;6.874;2023-12-20T07:49:46;25.43;;;6.57;;
14858;SDS011;7521;51.700;6.874;2023-12-20T07:52:51;18.60;;;6.05;;
14858;SDS011;7521;51.700;6.874;2023-12-20T07:55:56;20.05;;;6.35;;
14858;SDS011;7521;51.700;6.874;2023-12-20T07:59:01;19.85;;;5.45;;
14858;SDS011;7521;51.700;6.874;2023-12-20T08:02:07;20.73;;;6.00;;
14858;SDS011;7521;51.700;6.874;2023-12-20T08:05:12;21.92;;;5.97;;
14858;SDS011;7521;51.700;6.874;2023-12-20T08:08:18;21.27;;;5.70;;
14858;SDS011;7521;51.700;6.874;2023-12-20T08:11:23;32.28;;;6.60;;
14858;SDS011;7521;51.700;6.874;2023-12-20T08:14:28;23.63;;;5.50;;
14858;SDS011;7521;51.700;6.874;2023-12-20T08:17:34;27.55;;;6.07;;
14858;SDS011;7521;51.700;6.874;2023-12-20T08:20:39;26.73;;;5.80;;
14858;SDS011;7521;51.700;6.874;2023-12-20T08:23:44;27.25;;;5.75;;
14858;SDS011;7521;51.700;6.874;2023-12-20T08:26:50;27.67;;;6.13;;
14858;SDS011;7521;51.700;6.874;2023-12-20T08:29:55;23.73;;;5.65;;
14858;SDS011;7521;51.700;6.874;2023-12-20T08:33:00;18.83;;;6.30;;
14858;SDS011;7521;51.700;6.874;2023-12-20T08:36:06;22.03;;;6.33;;
14858;SDS011;7521;51.700;6.874;2023-12-20T08:39:11;21.80;;;5.53;;
14858;SDS011;7521;51.700;6.874;2023-12-20T08:42:16;24.60;;;5.57;;
14858;SDS011;7521;51.700;6.874;2023-12-20T08:45:21;22.50;;;5.30;;
14858;SDS011;7521;51.700;6.874;2023-12-20T08:48:27;19.80;;;5.00;;
14858;SDS011;7521;51.700;6.874;2023-12-20T08:51:32;21.20;;;5.03;;
14858;SDS011;7521;51.700;6.874;2023-12-20T08:54:38;21.93;;;5.00;;
14858;SDS011;7521;51.700;6.874;2023-12-20T08:57:43;21.20;;;4.65;;
14858;SDS011;7521;51.700;6.874;2023-12-20T09:00:48;19.40;;;5.28;;
14858;SDS011;7521;51.700;6.874;2023-12-20T09:03:54;21.10;;;5.55;;
14858;SDS011;7521;51.700;6.874;2023-12-20T09:06:59;22.60;;;5.20;;
14858;SDS011;7521;51.700;6.874;2023-12-20T09:10:04;22.50;;;5.43;;
14858;SDS011;7521;51.700;6.874;2023-12-20T09:13:10;27.60;;;6.00;;
14858;SDS011;7521;51.700;6.874;2023-12-20T09:16:15;25.90;;;5.55;;
14858;SDS011;7521;51.700;6.874;2023-12-20T09:19:20;15.93;;;4.57;;
14858;SDS011;7521;51.700;6.874;2023-12-20T09:22:25;20.17;;;5.75;;
14858;SDS011;7521;51.700;6.874;2023-12-20T09:25:31;18.20;;;3.50;;
14858;SDS011;7521;51.700;6.874;2023-12-20T09:28:36;26.88;;;4.93;;
14858;SDS011;7521;51.700;6.874;2023-12-20T09:31:41;30.33;;;4.90;;
14858;SDS011;7521;51.700;6.874;2023-12-20T09:34:48;15.97;;;4.10;;
14858;SDS011;7521;51.700;6.874;2023-12-20T09:37:54;14.87;;;4.20;;
14858;SDS011;7521;51.700;6.874;2023-12-20T09:40:59;17.08;;;4.15;;
14858;SDS011;7521;51.700;6.874;2023-12-20T09:44:06;16.20;;;3.77;;
14858;SDS011;7521;51.700;6.874;2023-12-20T09:47:12;16.77;;;5.07;;
14858;SDS011;7521;51.700;6.874;2023-12-20T09:50:18;22.00;;;4.20;;
14858;SDS011;7521;51.700;6.874;2023-12-20T09:53:24;19.20;;;5.00;;
14858;SDS011;7521;51.700;6.874;2023-12-20T09:56:34;19.57;;;4.93;;
14858;SDS011;7521;51.700;6.874;2023-12-20T09:59:39;19.63;;;4.27;;
14858;SDS011;7521;51.700;6.874;2023-12-20T10:02:45;21.30;;;4.90;;
14858;SDS011;7521;51.700;6.874;2023-12-20T10:05:54;22.83;;;5.07;;
14858;SDS011;7521;51.700;6.874;2023-12-20T10:09:00;20.00;;;5.13;;
14858;SDS011;7521;51.700;6.874;2023-12-20T10:12:06;16.67;;;4.53;;
14858;SDS011;7521;51.700;6.874;2023-12-20T10:15:11;15.20;;;4.00;;
14858;SDS011;7521;51.700;6.874;2023-12-20T10:18:16;20.25;;;5.03;;
14858;SDS011;7521;51.700;6.874;2023-12-20T10:21:22;22.17;;;4.23;;
14858;SDS011;7521;51.700;6.874;2023-12-20T10:24:30;24.67;;;5.13;;
14858;SDS011;7521;51.700;6.874;2023-12-20T10:27:35;24.10;;;5.33;;
14858;SDS011;7521;51.700;6.874;2023-12-20T10:30:41;19.45;;;4.45;;
14858;SDS011;7521;51.700;6.874;2023-12-20T10:33:46;18.77;;;4.60;;
14858;SDS011;7521;51.700;6.874;2023-12-20T10:36:51;12.90;;;3.90;;
14858;SDS011;7521;51.700;6.874;2023-12-20T10:39:57;19.03;;;5.37;;
14858;SDS011;7521;51.700;6.874;2023-12-20T10:43:04;13.53;;;5.07;;
14858;SDS011;7521;51.700;6.874;2023-12-20T10:46:09;19.33;;;5.23;;
14858;SDS011;7521;51.700;6.874;2023-12-20T10:49:15;21.30;;;4.97;;
14858;SDS011;7521;51.700;6.874;2023-12-20T10:52:22;21.77;;;4.70;;
14858;SDS011;7521;51.700;6.874;2023-12-20T10:55:28;15.10;;;4.43;;
14858;SDS011;7521;51.700;6.874;2023-12-20T10:58:33;14.93;;;4.97;;
14858;SDS011;7521;51.700;6.874;2023-12-20T11:01:40;23.20;;;5.40;;
14858;SDS011;7521;51.700;6.874;2023-12-20T11:07:59;19.40;;;5.03;;
14858;SDS011;7521;51.700;6.874;2023-12-20T11:11:10;15.80;;;5.47;;
14858;SDS011;7521;51.700;6.874;2023-12-20T11:14:25;22.57;;;6.53;;
14858;SDS011;7521;51.700;6.874;2023-12-20T11:17:32;21.10;;;6.40;;
14858;SDS011;7521;51.700;6.874;2023-12-20T11:20:41;22.95;;;6.13;;
14858;SDS011;7521;51.700;6.874;2023-12-20T11:23:46;20.47;;;5.67;;
14858;SDS011;7521;51.700;6.874;2023-12-20T11:26:51;18.23;;;4.83;;
14858;SDS011;7521;51.700;6.874;2023-12-20T11:30:02;26.70;;;5.63;;
14858;SDS011;7521;51.700;6.874;2023-12-20T11:33:08;17.37;;;5.03;;
14858;SDS011;7521;51.700;6.874;2023-12-20T11:36:16;24.17;;;5.63;;
14858;SDS011;7521;51.700;6.874;2023-12-20T11:39:26;17.80;;;5.20;;
14858;SDS011;7521;51.700;6.874;2023-12-20T11:42:33;18.07;;;5.90;;
14858;SDS011;7521;51.700;6.874;2023-12-20T11:45:39;20.60;;;4.97;;
14858;SDS011;7521;51.700;6.874;2023-12-20T11:48:56;15.57;;;5.20;;
14858;SDS011;7521;51.700;6.874;2023-12-20T11:52:02;20.83;;;5.03;;
14858;SDS011;7521;51.700;6.874;2023-12-20T11:55:07;25.53;;;5.77;;
14858;SDS011;7521;51.700;6.874;2023-12-20T11:58:12;22.52;;;6.10;;
14858;SDS011;7521;51.700;6.874;2023-12-20T12:01:19;21.13;;;5.03;;
14858;SDS011;7521;51.700;6.874;2023-12-20T12:04:24;14.33;;;5.43;;
14858;SDS011;7521;51.700;6.874;2023-12-20T12:07:30;16.08;;;5.15;;
14858;SDS011;7521;51.700;6.874;2023-12-20T12:10:35;28.40;;;5.78;;
14858;SDS011;7521;51.700;6.874;2023-12-20T12:13:40;20.95;;;5.53;;
14858;SDS011;7521;51.700;6.874;2023-12-20T12:16:45;17.25;;;5.03;;
14858;SDS011;7521;51.700;6.874;2023-12-20T12:20:01;21.83;;;6.13;;
14858;SDS011;7521;51.700;6.874;2023-12-20T12:23:06;22.47;;;5.23;;
14858;SDS011;7521;51.700;6.874;2023-12-20T12:26:11;26.20;;;5.37;;
14858;SDS011;7521;51.700;6.874;2023-12-20T12:29:16;14.35;;;3.97;;
14858;SDS011;7521;51.700;6.874;2023-12-20T12:32:22;20.67;;;5.40;;
14858;SDS011;7521;51.700;6.874;2023-12-20T12:35:27;19.88;;;4.93;;
14858;SDS011;7521;51.700;6.874;2023-12-20T12:38:32;20.63;;;6.07;;
14858;SDS011;7521;51.700;6.874;2023-12-20T12:41:39;21.57;;;4.47;;
14858;SDS011;7521;51.700;6.874;2023-12-20T12:44:47;18.80;;;5.40;;
14858;SDS011;7521;51.700;6.874;2023-12-20T12:47:52;16.47;;;5.00;;
14858;SDS011;7521;51.700;6.874;2023-12-20T12:50:59;22.13;;;5.80;;
14858;SDS011;7521;51.700;6.874;2023-12-20T12:54:05;18.88;;;5.05;;
14858;SDS011;7521;51.700;6.874;2023-12-20T12:57:10;15.90;;;5.00;;
14858;SDS011;7521;51.700;6.874;2023-12-20T13:00:15;19.90;;;5.37;;
14858;SDS011;7521;51.700;6.874;2023-12-20T13:03:21;17.73;;;4.97;;
14858;SDS011;7521;51.700;6.874;2023-12-20T13:06:26;19.87;;;4.97;;
14858;SDS011;7521;51.700;6.874;2023-12-20T13:09:32;18.07;;;4.87;;
14858;SDS011;7521;51.700;6.874;2023-12-20T13:12:37;22.53;;;5.30;;
14858;SDS011;7521;51.700;6.874;2023-12-20T13:15:42;17.90;;;5.20;;
14858;SDS011;7521;51.700;6.874;2023-12-20T13:18:53;19.13;;;5.10;;
14858;SDS011;7521;51.700;6.874;2023-12-20T13:21:58;18.53;;;5.67;;
14858;SDS011;7521;51.700;6.874;2023-12-20T13:25:03;16.40;;;4.77;;
14858;SDS011;7521;51.700;6.874;2023-12-20T13:28:09;22.80;;;5.67;;
14858;SDS011;7521;51.700;6.874;2023-12-20T13:31:14;24.50;;;5.27;;
14858;SDS011;7521;51.700;6.874;2023-12-20T13:34:19;23.03;;;5.27;;
14858;SDS011;7521;51.700;6.874;2023-12-20T13:37:24;17.83;;;5.33;;
14858;SDS011;7521;51.700;6.874;2023-12-20T13:40:30;25.00;;;6.05;;
14858;SDS011;7521;51.700;6.874;2023-12-20T13:43:35;23.42;;;5.43;;
14858;SDS011;7521;51.700;6.874;2023-12-20T13:46:40;19.70;;;5.70;;
14858;SDS011;7521;51.700;6.874;2023-12-20T13:49:45;19.83;;;5.83;;
14858;SDS011;7521;51.700;6.874;2023-12-20T13:52:51;18.23;;;5.93;;
14858;SDS011;7521;51.700;6.874;2023-12-20T13:55:56;16.52;;;5.45;;
14858;SDS011;7521;51.700;6.874;2023-12-20T13:59:02;16.63;;;5.50;;
14858;SDS011;7521;51.700;6.874;2023-12-20T14:02:07;18.83;;;6.85;;
14858;SDS011;7521;51.700;6.874;2023-12-20T14:05:13;16.48;;;6.30;;
14858;SDS011;7521;51.700;6.874;2023-12-20T14:08:19;20.27;;;6.13;;
14858;SDS011;7521;51.700;6.874;2023-12-20T14:11:25;18.83;;;5.73;;
14858;SDS011;7521;51.700;6.874;2023-12-20T14:14:30;19.20;;;6.47;;
14858;SDS011;7521;51.700;6.874;2023-12-20T14:17:35;13.70;;;5.15;;
14858;SDS011;7521;51.700;6.874;2023-12-20T14:20:40;17.45;;;6.10;;
14858;SDS011;7521;51.700;6.874;2023-12-20T14:23:47;20.83;;;5.90;;
14858;SDS011;7521;51.700;6.874;2023-12-20T14:26:52;20.23;;;6.43;;
14858;SDS011;7521;51.700;6.874;2023-12-20T14:29:58;18.93;;;5.80;;
14858;SDS011;7521;51.700;6.874;2023-12-20T14:33:03;20.92;;;6.82;;
14858;SDS011;7521;51.700;6.874;2023-12-20T14:36:08;19.63;;;7.27;;
14858;SDS011;7521;51.700;6.874;2023-12-20T14:39:14;22.73;;;7.53;;
14858;SDS011;7521;51.700;6.874;2023-12-20T14:42:19;20.77;;;8.60;;
14858;SDS011;7521;51.700;6.874;2023-12-20T14:45:24;26.08;;;8.98;;
14858;SDS011;7521;51.700;6.874;2023-12-20T14:48:30;23.40;;;8.03;;
14858;SDS011;7521;51.700;6.874;2023-12-20T14:51:35;23.33;;;7.10;;
14858;SDS011;7521;51.700;6.874;2023-12-20T14:54:42;19.50;;;8.50;;
14858;SDS011;7521;51.700;6.874;2023-12-20T14:57:48;22.53;;;8.53;;
14858;SDS011;7521;51.700;6.874;2023-12-20T15:00:54;24.63;;;8.87;;
14858;SDS011;7521;51.700;6.874;2023-12-20T15:04:01;21.43;;;7.13;;
14858;SDS011;7521;51.700;6.874;2023-12-20T15:07:06;22.13;;;8.85;;
14858;SDS011;7521;51.700;6.874;2023-12-20T15:10:11;18.60;;;7.80;;
14858;SDS011;7521;51.700;6.874;2023-12-20T15:13:16;20.17;;;9.43;;
14858;SDS011;7521;51.700;6.874;2023-12-20T15:16:22;21.02;;;9.20;;
14858;SDS011;7521;51.700;6.874;2023-12-20T15:19:27;16.17;;;7.87;;
14858;SDS011;7521;51.700;6.874;2023-12-20T15:22:32;30.55;;;8.77;;
14858;SDS011;7521;51.700;6.874;2023-12-20T15:25:40;24.67;;;10.80;;
14858;SDS011;7521;51.700;6.874;2023-12-20T15:28:45;22.98;;;9.63;;
14858;SDS011;7521;51.700;6.874;2023-12-20T15:31:50;28.55;;;11.35;;
14858;SDS011;7521;51.700;6.874;2023-12-20T15:34:55;25.73;;;9.13;;
14858;SDS011;7521;51.700;6.874;2023-12-20T15:38:01;27.43;;;10.40;;
14858;SDS011;7521;51.700;6.874;2023-12-20T15:41:07;18.30;;;8.40;;
14858;SDS011;7521;51.700;6.874;2023-12-20T15:44:13;22.90;;;9.60;;
14858;SDS011;7521;51.700;6.874;2023-12-20T15:47:18;18.67;;;8.87;;
14858;SDS011;7521;51.700;6.874;2023-12-20T15:50:23;22.88;;;9.68;;
14858;SDS011;7521;51.700;6.874;2023-12-20T15:53:29;21.00;;;8.70;;
14858;SDS011;7521;51.700;6.874;2023-12-20T15:56:34;23.15;;;9.32;;
14858;SDS011;7521;51.700;6.874;2023-12-20T15:59:40;20.07;;;8.20;;
14858;SDS011;7521;51.700;6.874;2023-12-20T16:02:45;23.83;;;8.63;;
14858;SDS011;7521;51.700;6.874;2023-12-20T16:05:50;22.52;;;7.38;;
14858;SDS011;7521;51.700;6.874;2023-12-20T16:08:55;24.00;;;8.23;;
14858;SDS011;7521;51.700;6.874;2023-12-20T16:12:01;24.00;;;8.30;;
14858;SDS011;7521;51.700;6.874;2023-12-20T16:15:06;25.20;;;7.80;;
14858;SDS011;7521;51.700;6.874;2023-12-20T16:18:13;24.70;;;9.07;;
14858;SDS011;7521;51.700;6.874;2023-12-20T16:21:18;20.98;;;7.82;;
14858;SDS011;7521;51.700;6.874;2023-12-20T16:24:23;24.77;;;7.70;;
14858;SDS011;7521;51.700;6.874;2023-12-20T16:27:28;27.03;;;7.53;;
14858;SDS011;7521;51.700;6.874;2023-12-20T16:30:34;20.00;;;7.30;;
14858;SDS011;7521;51.700;6.874;2023-12-20T16:33:39;16.38;;;6.70;;
14858;SDS011;7521;51.700;6.874;2023-12-20T16:39:55;25.70;;;8.83;;
14858;SDS011;7521;51.700;6.874;2023-12-20T16:43:00;20.20;;;8.80;;
14858;SDS011;7521;51.700;6.874;2023-12-20T16:46:08;23.97;;;10.30;;
14858;SDS011;7521;51.700;6.874;2023-12-20T16:49:13;14.73;;;7.77;;
14858;SDS011;7521;51.700;6.874;2023-12-20T16:52:18;17.25;;;7.25;;
14858;SDS011;7521;51.700;6.874;2023-12-20T16:55:23;20.30;;;8.85;;
14858;SDS011;7521;51.700;6.874;2023-12-20T16:58:28;20.48;;;8.50;;
14858;SDS011;7521;51.700;6.874;2023-12-20T17:01:34;22.27;;;9.68;;
14858;SDS011;7521;51.700;6.874;2023-12-20T17:04:39;31.83;;;10.80;;
14858;SDS011;7521;51.700;6.874;2023-12-20T17:07:45;22.17;;;10.90;;
14858;SDS011;7521;51.700;6.874;2023-12-20T17:10:50;24.00;;;10.20;;
14858;SDS011;7521;51.700;6.874;2023-12-20T17:13:55;19.48;;;10.88;;
14858;SDS011;7521;51.700;6.874;2023-12-20T17:17:06;19.30;;;9.53;;
14858;SDS011;7521;51.700;6.874;2023-12-20T17:20:13;25.10;;;11.53;;
14858;SDS011;7521;51.700;6.874;2023-12-20T17:23:18;30.10;;;13.03;;
14858;SDS011;7521;51.700;6.874;2023-12-20T17:26:23;27.45;;;12.63;;
14858;SDS011;7521;51.700;6.874;2023-12-20T17:29:30;23.77;;;12.87;;
14858;SDS011;7521;51.700;6.874;2023-12-20T17:32:35;24.92;;;12.80;;
14858;SDS011;7521;51.700;6.874;2023-12-20T17:35:42;23.13;;;13.67;;
14858;SDS011;7521;51.700;6.874;2023-12-20T17:38:47;20.40;;;12.30;;
14858;SDS011;7521;51.700;6.874;2023-12-20T17:41:52;25.03;;;12.13;;
14858;SDS011;7521;51.700;6.874;2023-12-20T17:44:58;25.83;;;13.13;;
14858;SDS011;7521;51.700;6.874;2023-12-20T17:48:03;29.52;;;16.65;;
14858;SDS011;7521;51.700;6.874;2023-12-20T17:51:09;27.03;;;14.83;;
14858;SDS011;7521;51.700;6.874;2023-12-20T17:54:14;25.85;;;14.85;;
14858;SDS011;7521;51.700;6.874;2023-12-20T17:57:19;33.22;;;14.65;;
14858;SDS011;7521;51.700;6.874;2023-12-20T18:00:25;27.40;;;15.93;;
14858;SDS011;7521;51.700;6.874;2023-12-20T18:03:31;27.57;;;16.07;;
14858;SDS011;7521;51.700;6.874;2023-12-20T18:06:36;26.38;;;13.77;;
14858;SDS011;7521;51.700;6.874;2023-12-20T18:09:41;22.67;;;12.93;;
14858;SDS011;7521;51.700;6.874;2023-12-20T18:12:47;27.47;;;13.50;;
14858;SDS011;7521;51.700;6.874;2023-12-20T18:15:52;30.30;;;13.07;;
14858;SDS011;7521;51.700;6.874;2023-12-20T18:18:59;26.43;;;13.10;;
14858;SDS011;7521;51.700;6.874;2023-12-20T18:22:08;31.65;;;13.25;;
14858;SDS011;7521;51.700;6.874;2023-12-20T18:25:13;27.00;;;13.20;;
14858;SDS011;7521;51.700;6.874;2023-12-20T18:28:18;28.23;;;11.97;;
14858;SDS011;7521;51.700;6.874;2023-12-20T18:31:23;24.48;;;12.68;;
14858;SDS011;7521;51.700;6.874;2023-12-20T18:34:29;26.00;;;12.80;;
14858;SDS011;7521;51.700;6.874;2023-12-20T18:37:34;32.20;;;14.00;;
14858;SDS011;7521;51.700;6.874;2023-12-20T18:40:40;23.87;;;12.80;;